Information for Kabarowsk

back to airport list

ICAO Code:UHHH Country:Russia
Airport Name:Kabarowsk Is Hub:No
Latitude:48.5281 Longitude:135.188
Scheduled Departures:0 Scheduled Arrivals:0
Total Past Departures:1 Total Past Arrivals:1
Pilots Based:0 Current Pilot Location:0
UHHH 242030Z 23005MPS CAVOK 09/06 Q1009 R23L/090060 NOSIG RMK QFE750/1001


Nearby Destination Airports

ICAO Airport Country GC Distance View
No destination airports within a 500 NM radius!


+ Show Timetable

Scheduled Departures from UHHH

Flight To Destination Days Dep. Time Aircraft Info
No Scheduled Departures!


Scheduled Arrivals to UHHH

Flight From Origin Days Arr. Time Aircraft Info
No Scheduled Arrivals!
+ Show Recent Flight Info

Recent Departures from UHHH

Flight To Destination Pilot Flighttime Landingrate Aircraft View
ASX197 PANC Anchorage Damian Belica 06.00.45 -139 ft/m B763 View Report


Recent Arrivals to UHHH

Flight From Origin Pilot Flighttime Landingrate Aircraft View
ASX196 RJTT Tokyo Damian Belica 02.43.21 -189 ft/m B763 View Report
+ Show Pilot Information

Pilots based at UHHH

Avatar Pilot ID Name Location Rank View Profile
No Pilots are based at this airport!


Pilots currently at UHHH

Avatar Pilot ID Name Location Rank On Location since View Profile
Currently there are no pilots at this airport!
- Hide Map